createdAt,value
2023-05-01T00:00:58.886Z,3.53
2023-05-01T00:03:26.038Z,3.93
2023-05-01T00:06:00.565Z,4.10
2023-05-01T00:08:27.731Z,3.93
2023-05-01T00:10:54.763Z,4.00
2023-05-01T00:13:24.467Z,3.67
2023-05-01T00:15:52.081Z,4.03
2023-05-01T00:18:19.037Z,3.60
2023-05-01T00:20:45.877Z,4.20
2023-05-01T00:23:12.959Z,4.90
2023-05-01T00:25:40.146Z,4.00
2023-05-01T00:28:08.065Z,3.90
2023-05-01T00:30:36.074Z,4.20
2023-05-01T00:33:03.184Z,3.70
2023-05-01T00:35:31.259Z,3.83
2023-05-01T00:37:58.858Z,4.23
2023-05-01T00:40:26.018Z,4.10
2023-05-01T00:42:52.863Z,3.97
2023-05-01T00:45:20.264Z,4.77
2023-05-01T00:47:47.929Z,4.10
2023-05-01T00:50:15.101Z,4.30
2023-05-01T00:52:42.767Z,4.77
2023-05-01T00:55:09.860Z,4.93
2023-05-01T00:57:37.348Z,4.30
2023-05-01T01:00:05.667Z,4.70
2023-05-01T01:02:33.178Z,4.37
2023-05-01T01:05:00.277Z,4.90
2023-05-01T01:07:41.933Z,4.60
2023-05-01T01:10:14.802Z,4.83
2023-05-01T01:12:44.526Z,4.27
2023-05-01T01:15:47.450Z,4.17
2023-05-01T01:18:19.461Z,4.07
2023-05-01T01:21:01.618Z,4.90
2023-05-01T01:23:53.650Z,4.23
2023-05-01T01:26:26.823Z,4.97
2023-05-01T01:29:09.857Z,4.50
2023-05-01T01:32:01.744Z,4.50
2023-05-01T01:34:35.539Z,4.97
2023-05-01T01:37:11.098Z,4.90
2023-05-01T01:39:51.346Z,4.23
2023-05-01T01:42:29.721Z,4.37
2023-05-01T01:44:59.412Z,4.60
2023-05-01T01:47:32.153Z,4.60
2023-05-01T01:50:04.569Z,4.90
2023-05-01T01:52:33.691Z,4.90
2023-05-01T01:55:12.785Z,4.90
2023-05-01T01:57:44.076Z,4.00
2023-05-01T02:00:12.933Z,5.10
2023-05-01T02:02:48.144Z,4.00
2023-05-01T02:05:17.181Z,4.83
2023-05-01T02:07:47.171Z,5.43
2023-05-01T02:10:16.369Z,5.43
2023-05-01T02:12:46.316Z,4.43
2023-05-01T02:15:16.756Z,5.40
2023-05-01T02:17:43.744Z,4.70
2023-05-01T02:20:15.968Z,5.00
2023-05-01T02:22:46.261Z,5.70
2023-05-01T02:25:15.148Z,4.70
2023-05-01T02:27:57.873Z,4.80
2023-05-01T02:30:25.056Z,4.70
2023-05-01T02:32:52.349Z,5.30
2023-05-01T02:35:19.814Z,5.37
2023-05-01T02:37:47.342Z,4.70
2023-05-01T02:40:15.375Z,4.80
2023-05-01T02:42:44.932Z,5.23
2023-05-01T02:45:20.193Z,4.80
2023-05-01T02:47:51.930Z,4.97
2023-05-01T02:50:20.362Z,4.90
2023-05-01T02:52:47.759Z,5.90
2023-05-01T02:55:47.238Z,5.77
2023-05-01T02:58:18.896Z,5.93
2023-05-01T03:00:46.420Z,6.00
2023-05-01T03:03:13.405Z,7.43
2023-05-01T03:05:41.266Z,8.87
2023-05-01T03:08:11.450Z,8.90
2023-05-01T03:10:42.808Z,9.73
2023-05-01T03:13:11.120Z,8.80
2023-05-01T03:15:38.855Z,7.70
2023-05-01T03:18:06.881Z,7.23
2023-05-01T03:20:34.307Z,6.00
2023-05-01T03:23:02.521Z,7.17
2023-05-01T03:25:30.072Z,5.10
2023-05-01T03:27:56.923Z,6.03
2023-05-01T03:30:24.196Z,5.60
2023-05-01T03:32:52.705Z,5.60
2023-05-01T03:35:26.179Z,4.77
2023-05-01T03:37:53.260Z,4.60
2023-05-01T03:40:38.726Z,5.00
2023-05-01T03:43:25.046Z,5.20
2023-05-01T03:45:53.108Z,5.30
2023-05-01T03:48:20.991Z,5.37
2023-05-01T03:50:47.944Z,5.97
2023-05-01T03:53:15.545Z,5.50
2023-05-01T03:55:43.889Z,4.43
2023-05-01T03:58:11.990Z,5.27
2023-05-01T04:00:39.038Z,5.30
2023-05-01T04:03:06.214Z,5.40
2023-05-01T04:05:35.288Z,5.67
2023-05-01T04:08:04.552Z,5.97
2023-05-01T04:10:31.702Z,6.13
2023-05-01T04:13:05.166Z,5.60
2023-05-01T04:15:32.733Z,6.33
2023-05-01T04:17:59.806Z,6.87
2023-05-01T04:20:27.004Z,6.10
2023-05-01T04:22:55.208Z,7.27
2023-05-01T04:25:22.217Z,6.30
2023-05-01T04:27:51.526Z,7.20
2023-05-01T04:30:18.509Z,6.90
2023-05-01T04:32:45.779Z,6.40
2023-05-01T04:35:13.014Z,7.43
2023-05-01T04:37:43.083Z,7.00
2023-05-01T04:40:11.642Z,7.20
2023-05-01T04:42:39.489Z,7.53
2023-05-01T04:45:09.780Z,5.77
2023-05-01T04:47:37.023Z,5.60
2023-05-01T04:50:05.354Z,6.87
2023-05-01T04:52:32.326Z,4.90
2023-05-01T04:55:01.713Z,6.20
2023-05-01T04:57:30.930Z,6.77
2023-05-01T04:59:58.706Z,5.50
2023-05-01T05:02:26.002Z,6.10
2023-05-01T05:04:54.402Z,5.00
2023-05-01T05:07:23.042Z,5.90
2023-05-01T05:10:10.184Z,5.50
2023-05-01T05:12:38.012Z,5.87
2023-05-01T05:15:05.902Z,5.90
2023-05-01T05:17:32.811Z,5.77
2023-05-01T05:20:00.062Z,6.23
2023-05-01T05:22:26.910Z,6.30
2023-05-01T05:25:13.745Z,5.63
2023-05-01T05:27:40.645Z,5.67
2023-05-01T05:30:09.043Z,7.37
2023-05-01T05:32:37.982Z,5.63
2023-05-01T05:35:05.861Z,5.80
2023-05-01T05:37:33.007Z,5.00
2023-05-01T05:40:00.058Z,5.70
2023-05-01T05:42:29.583Z,5.20
2023-05-01T05:44:59.750Z,6.13
2023-05-01T05:47:26.685Z,5.30
2023-05-01T05:49:55.791Z,5.53
2023-05-01T05:52:22.993Z,6.73
2023-05-01T05:54:49.971Z,5.90
2023-05-01T05:57:16.849Z,5.60
2023-05-01T05:59:48.960Z,6.53
2023-05-01T06:02:18.292Z,6.60
2023-05-01T06:04:45.282Z,6.73
2023-05-01T06:07:12.886Z,6.80
2023-05-01T06:09:39.784Z,7.17
2023-05-01T06:12:07.043Z,6.80
2023-05-01T06:14:34.523Z,6.70
2023-05-01T06:17:01.870Z,8.90
2023-05-01T06:19:28.797Z,7.80
2023-05-01T06:22:05.206Z,9.20
2023-05-01T06:24:37.054Z,8.40
2023-05-01T06:27:04.398Z,7.87
2023-05-01T06:29:31.256Z,8.53
2023-05-01T06:31:58.573Z,7.80
2023-05-01T06:34:26.140Z,8.20
2023-05-01T06:36:54.221Z,8.23
2023-05-01T06:39:22.451Z,9.07
2023-05-01T06:41:49.724Z,8.00
2023-05-01T06:44:20.417Z,8.13
2023-05-01T06:46:47.307Z,8.13
2023-05-01T06:49:14.231Z,7.97
2023-05-01T06:51:41.119Z,7.90
2023-05-01T06:54:09.054Z,8.03
2023-05-01T06:56:35.956Z,8.97
2023-05-01T06:59:02.841Z,8.10
2023-05-01T07:01:31.168Z,8.13
2023-05-01T07:03:58.961Z,8.37
2023-05-01T07:06:26.120Z,7.93
2023-05-01T07:08:53.144Z,7.50
2023-05-01T07:11:20.631Z,8.40
2023-05-01T07:13:47.511Z,7.57
2023-05-01T07:16:14.525Z,7.90
2023-05-01T07:18:41.414Z,8.07
2023-05-01T07:21:10.382Z,7.37
2023-05-01T07:23:37.327Z,7.90
2023-05-01T07:26:04.387Z,8.30
2023-05-01T07:28:31.574Z,7.07
2023-05-01T07:30:58.897Z,7.47
2023-05-01T07:33:26.312Z,7.10
2023-05-01T07:35:53.448Z,8.30
2023-05-01T07:38:20.357Z,8.03
2023-05-01T07:40:47.262Z,7.83
2023-05-01T07:43:14.201Z,6.97
2023-05-01T07:45:43.050Z,6.53
2023-05-01T07:48:10.236Z,6.37
2023-05-01T07:50:39.145Z,6.20
2023-05-01T07:53:06.032Z,6.40
2023-05-01T07:55:32.904Z,6.00
2023-05-01T07:57:59.721Z,6.27
2023-05-01T08:00:26.618Z,7.27
2023-05-01T08:02:53.791Z,6.33
2023-05-01T08:05:20.870Z,6.30
2023-05-01T08:07:47.729Z,6.20
2023-05-01T08:10:15.285Z,6.00
2023-05-01T08:12:42.135Z,5.27
2023-05-01T08:15:09.428Z,6.20
2023-05-01T08:17:37.059Z,6.20
2023-05-01T08:20:04.659Z,5.83
2023-05-01T08:22:32.213Z,5.30
2023-05-01T08:24:59.105Z,6.30
2023-05-01T08:27:26.660Z,6.00
2023-05-01T08:29:53.562Z,5.73
2023-05-01T08:32:20.604Z,5.37
2023-05-01T08:34:47.683Z,5.27
2023-05-01T08:37:14.861Z,6.50
2023-05-01T08:39:41.780Z,5.10
2023-05-01T08:42:08.878Z,5.27
2023-05-01T08:44:42.349Z,5.47
2023-05-01T08:47:15.565Z,4.87
2023-05-01T08:49:43.222Z,4.33
2023-05-01T08:52:14.723Z,5.50
2023-05-01T08:54:47.398Z,5.00
2023-05-01T08:57:14.595Z,5.50
2023-05-01T08:59:41.535Z,4.30
2023-05-01T09:02:10.631Z,5.90
2023-05-01T09:04:40.083Z,4.90
2023-05-01T09:07:08.100Z,5.20
2023-05-01T09:09:35.368Z,5.77
2023-05-01T09:12:25.474Z,5.33
2023-05-01T09:14:57.302Z,4.70
2023-05-01T09:17:28.155Z,4.47
2023-05-01T09:19:55.252Z,3.50
2023-05-01T09:22:22.518Z,4.70
2023-05-01T09:24:49.617Z,5.10
2023-05-01T09:27:16.576Z,4.30
2023-05-01T09:29:45.900Z,5.53
2023-05-01T09:32:30.087Z,3.90
2023-05-01T09:35:10.952Z,4.60
2023-05-01T09:37:38.025Z,3.83
2023-05-01T09:40:10.024Z,2.83
2023-05-01T09:42:42.052Z,3.43
2023-05-01T09:45:16.365Z,4.00
2023-05-01T09:47:44.373Z,4.50
2023-05-01T09:50:29.179Z,4.40
2023-05-01T09:52:56.217Z,4.70
2023-05-01T09:55:25.666Z,4.50
2023-05-01T09:57:53.211Z,4.60
2023-05-01T10:00:22.460Z,3.77
2023-05-01T10:02:50.721Z,4.00
2023-05-01T10:05:18.958Z,4.17
2023-05-01T10:07:59.096Z,4.90
2023-05-01T10:10:26.614Z,4.10
2023-05-01T10:12:53.579Z,3.50
2023-05-01T10:15:26.191Z,3.53
2023-05-01T10:17:54.880Z,3.57
2023-05-01T10:20:22.177Z,3.43
2023-05-01T10:22:49.826Z,3.30
2023-05-01T10:25:18.244Z,3.53
2023-05-01T10:27:45.491Z,3.57
2023-05-01T10:30:13.011Z,4.00
2023-05-01T10:32:42.591Z,4.27
2023-05-01T10:35:14.273Z,4.87
2023-05-01T10:37:48.882Z,4.43
2023-05-01T10:40:43.612Z,4.37
2023-05-01T10:43:32.470Z,3.50
2023-05-01T10:46:08.504Z,4.27
2023-05-01T10:48:38.413Z,3.97
2023-05-01T10:51:27.862Z,3.80
2023-05-01T10:54:31.672Z,4.07
2023-05-01T10:57:02.599Z,3.40
2023-05-01T11:00:01.483Z,4.13
2023-05-01T11:02:28.506Z,3.90
2023-05-01T11:04:57.151Z,4.40
2023-05-01T11:07:24.954Z,3.90
2023-05-01T11:09:59.140Z,4.60
2023-05-01T11:12:48.045Z,3.67
2023-05-01T11:15:27.444Z,3.43
2023-05-01T11:17:54.995Z,4.37
2023-05-01T11:20:24.910Z,5.70
2023-05-01T11:22:58.559Z,3.80
2023-05-01T11:25:27.956Z,4.40
2023-05-01T11:27:57.034Z,3.70
2023-05-01T11:30:24.643Z,3.90
2023-05-01T11:32:52.468Z,4.50
2023-05-01T11:35:26.626Z,4.63
2023-05-01T11:37:56.121Z,4.20
2023-05-01T11:40:34.520Z,4.30
2023-05-01T11:43:06.274Z,4.63
2023-05-01T11:45:34.347Z,4.20
2023-05-01T11:48:04.439Z,3.60
2023-05-01T11:50:33.488Z,4.07
2023-05-01T11:53:00.513Z,4.00
2023-05-01T11:55:34.951Z,4.20
2023-05-01T11:58:02.243Z,4.10
2023-05-01T12:00:35.130Z,3.80
2023-05-01T12:03:03.072Z,4.60
2023-05-01T12:05:31.899Z,4.77
2023-05-01T12:08:12.234Z,4.07
2023-05-01T12:10:41.909Z,4.63
2023-05-01T12:13:10.523Z,4.53
2023-05-01T12:15:39.970Z,4.00
2023-05-01T12:18:07.478Z,4.57
2023-05-01T12:20:41.842Z,3.90
2023-05-01T12:23:11.642Z,4.10
2023-05-01T12:25:40.986Z,4.17
2023-05-01T12:28:14.456Z,4.50
2023-05-01T12:30:42.904Z,4.00
2023-05-01T12:33:11.868Z,4.40
2023-05-01T12:35:40.102Z,4.33
2023-05-01T12:38:23.755Z,4.40
2023-05-01T12:40:54.706Z,4.70
2023-05-01T12:43:29.803Z,4.43
2023-05-01T12:45:57.191Z,5.40
2023-05-01T12:48:24.694Z,4.40
2023-05-01T12:50:55.187Z,5.20
2023-05-01T12:53:26.879Z,4.10
2023-05-01T12:55:56.650Z,5.13
2023-05-01T12:58:24.554Z,4.23
2023-05-01T13:00:53.802Z,4.90
2023-05-01T13:03:28.631Z,5.10
2023-05-01T13:05:59.895Z,5.00
2023-05-01T13:08:31.766Z,4.50
2023-05-01T13:11:01.160Z,5.20
2023-05-01T13:13:30.746Z,4.70
2023-05-01T13:16:09.362Z,4.67
2023-05-01T13:19:05.928Z,4.67
2023-05-01T13:21:33.113Z,7.10
2023-05-01T13:24:01.530Z,6.80
2023-05-01T13:26:31.360Z,6.53
2023-05-01T13:29:00.245Z,5.40
2023-05-01T13:31:27.767Z,5.60
2023-05-01T13:33:55.731Z,6.27
2023-05-01T13:36:26.015Z,7.00
2023-05-01T13:38:57.253Z,6.37
2023-05-01T13:41:26.288Z,6.10
2023-05-01T13:43:56.372Z,6.30
2023-05-01T13:46:25.116Z,9.97
2023-05-01T13:48:52.384Z,7.70
2023-05-01T13:51:24.624Z,5.93
2023-05-01T13:53:54.252Z,5.77
2023-05-01T13:56:22.232Z,6.17
2023-05-01T13:58:50.617Z,6.00
2023-05-01T14:01:22.986Z,6.67
2023-05-01T14:03:50.357Z,6.07
2023-05-01T14:06:21.362Z,13.63
2023-05-01T14:08:50.306Z,6.80
2023-05-01T14:11:18.369Z,8.97
2023-05-01T14:13:47.412Z,7.03
2023-05-01T14:16:25.106Z,6.20
2023-05-01T14:18:57.771Z,8.07
2023-05-01T14:21:30.168Z,8.90
2023-05-01T14:23:57.439Z,12.13
2023-05-01T14:26:25.054Z,7.03
2023-05-01T14:28:52.634Z,10.43
2023-05-01T14:31:28.627Z,8.30
2023-05-01T14:34:01.088Z,7.50
2023-05-01T14:36:34.145Z,7.17
2023-05-01T14:39:02.892Z,7.87
2023-05-01T14:41:30.335Z,7.53
2023-05-01T14:43:57.493Z,8.50
2023-05-01T14:46:35.622Z,7.97
2023-05-01T14:49:03.262Z,7.17
2023-05-01T14:51:32.448Z,7.63
2023-05-01T14:53:59.723Z,7.77
2023-05-01T14:56:26.772Z,7.70
2023-05-01T14:58:53.723Z,8.23
2023-05-01T15:01:21.023Z,7.97
2023-05-01T15:03:48.006Z,8.10
2023-05-01T15:06:15.133Z,6.53
2023-05-01T15:08:42.183Z,7.63
2023-05-01T15:11:09.701Z,8.00
2023-05-01T15:13:36.837Z,8.23
2023-05-01T15:16:04.078Z,8.73
2023-05-01T15:18:31.658Z,9.20
2023-05-01T15:20:58.518Z,9.50
2023-05-01T15:23:27.545Z,10.17
2023-05-01T15:25:54.970Z,9.70
2023-05-01T15:28:21.829Z,10.50
2023-05-01T15:30:48.685Z,10.67
2023-05-01T15:33:18.750Z,10.87
2023-05-01T15:35:48.863Z,10.23
2023-05-01T15:38:16.019Z,9.80
2023-05-01T15:40:46.186Z,12.10
2023-05-01T15:43:13.221Z,10.00
2023-05-01T15:45:44.812Z,9.73
2023-05-01T15:48:12.329Z,10.07
2023-05-01T15:50:39.306Z,11.20
2023-05-01T15:53:06.278Z,11.53
2023-05-01T15:55:34.434Z,10.90
2023-05-01T15:58:02.954Z,10.60
2023-05-01T16:00:29.874Z,11.87
2023-05-01T16:02:56.921Z,10.47
2023-05-01T16:05:25.139Z,10.10
2023-05-01T16:07:55.596Z,10.90
2023-05-01T16:10:23.549Z,11.30
2023-05-01T16:12:51.277Z,11.07
2023-05-01T16:15:18.470Z,10.70
2023-05-01T16:17:46.836Z,11.07
2023-05-01T16:20:14.665Z,10.40
2023-05-01T16:22:43.374Z,9.77
2023-05-01T16:25:11.479Z,9.93
2023-05-01T16:27:46.101Z,10.30
2023-05-01T16:30:16.794Z,10.80
2023-05-01T16:32:45.133Z,10.00
2023-05-01T16:35:17.962Z,10.97
2023-05-01T16:37:45.043Z,9.77
2023-05-01T16:40:17.026Z,11.60
2023-05-01T16:42:54.741Z,11.40
2023-05-01T16:45:21.982Z,11.07
2023-05-01T16:47:49.020Z,9.70
2023-05-01T16:50:17.308Z,10.67
2023-05-01T16:52:44.303Z,10.40
2023-05-01T16:55:11.461Z,10.70
2023-05-01T16:57:38.446Z,10.57
2023-05-01T17:00:06.964Z,11.00
2023-05-01T17:02:34.093Z,11.03
2023-05-01T17:05:02.118Z,10.10
2023-05-01T17:07:29.015Z,10.73
2023-05-01T17:09:55.918Z,11.63
2023-05-01T17:12:23.232Z,10.70
2023-05-01T17:14:50.349Z,11.00
2023-05-01T17:17:18.154Z,11.43
2023-05-01T17:19:45.140Z,9.60
2023-05-01T17:22:12.189Z,11.20
2023-05-01T17:24:39.146Z,10.00
2023-05-01T17:27:06.116Z,12.83
2023-05-01T17:29:33.052Z,10.60
2023-05-01T17:32:00.140Z,21.50
2023-05-01T17:34:27.177Z,44.80
2023-05-01T17:36:56.521Z,14.47
2023-05-01T17:39:24.707Z,12.47
2023-05-01T17:41:51.576Z,10.70
2023-05-01T17:44:18.403Z,11.00
2023-05-01T17:46:45.389Z,10.67
2023-05-01T17:49:12.236Z,9.30
2023-05-01T17:51:39.210Z,9.13
2023-05-01T17:54:06.256Z,9.67
2023-05-01T17:56:33.155Z,9.03
2023-05-01T17:59:00.312Z,8.83
2023-05-01T18:01:28.465Z,9.23
2023-05-01T18:03:55.586Z,9.20
2023-05-01T18:06:22.590Z,10.90
2023-05-01T18:08:50.332Z,9.37
2023-05-01T18:11:17.367Z,9.40
2023-05-01T18:13:47.516Z,9.80
2023-05-01T18:16:15.950Z,9.80
2023-05-01T18:18:43.053Z,10.77
2023-05-01T18:21:10.146Z,9.20
2023-05-01T18:23:37.180Z,10.00
2023-05-01T18:26:04.238Z,8.13
2023-05-01T18:28:31.890Z,8.80
2023-05-01T18:30:58.881Z,9.00
2023-05-01T18:33:26.065Z,9.07
2023-05-01T18:35:53.365Z,9.03
2023-05-01T18:38:20.306Z,7.70
2023-05-01T18:40:48.093Z,7.37
2023-05-01T18:43:15.888Z,7.90
2023-05-01T18:45:42.816Z,8.40
2023-05-01T18:48:09.931Z,8.23
2023-05-01T18:50:36.941Z,7.90
2023-05-01T18:53:04.437Z,7.53
2023-05-01T18:55:31.399Z,7.80
2023-05-01T18:57:58.555Z,9.30
2023-05-01T19:00:26.824Z,9.07
2023-05-01T19:02:53.859Z,9.27
2023-05-01T19:05:22.772Z,8.03
2023-05-01T19:07:49.858Z,7.87
2023-05-01T19:10:21.352Z,6.97
2023-05-01T19:12:49.488Z,8.90
2023-05-01T19:15:16.468Z,8.47
2023-05-01T19:17:44.215Z,9.20
2023-05-01T19:20:11.490Z,7.77
2023-05-01T19:22:38.427Z,8.60
2023-05-01T19:25:06.761Z,8.70
2023-05-01T19:27:33.743Z,8.33
2023-05-01T19:30:01.402Z,7.70
2023-05-01T19:32:28.802Z,8.23
2023-05-01T19:34:56.991Z,7.93
2023-05-01T19:37:24.158Z,7.67
2023-05-01T19:39:51.193Z,8.20
2023-05-01T19:42:18.292Z,7.83
2023-05-01T19:44:45.320Z,7.43
2023-05-01T19:47:12.879Z,8.37
2023-05-01T19:49:39.862Z,8.33
2023-05-01T19:52:06.850Z,7.60
2023-05-01T19:54:33.829Z,7.83
2023-05-01T19:57:01.063Z,7.60
2023-05-01T19:59:28.098Z,7.80
2023-05-01T20:01:55.203Z,7.83
2023-05-01T20:04:24.334Z,7.10
2023-05-01T20:06:52.141Z,8.07
2023-05-01T20:09:19.298Z,7.07
2023-05-01T20:11:46.175Z,7.50
2023-05-01T20:14:13.233Z,8.87
2023-05-01T20:16:40.308Z,8.57
2023-05-01T20:19:07.850Z,8.40
2023-05-01T20:21:34.758Z,7.57
2023-05-01T20:24:01.684Z,9.20
2023-05-01T20:26:28.652Z,7.93
2023-05-01T20:28:56.885Z,8.43
2023-05-01T20:31:23.872Z,8.87
2023-05-01T20:33:50.889Z,8.20
2023-05-01T20:36:18.163Z,8.77
2023-05-01T20:38:46.715Z,7.63
2023-05-01T20:41:14.743Z,9.40
2023-05-01T20:43:41.729Z,9.47
2023-05-01T20:46:08.628Z,8.53
2023-05-01T20:48:35.569Z,9.57
2023-05-01T20:51:02.463Z,8.07
2023-05-01T20:53:29.494Z,9.27
2023-05-01T20:55:56.393Z,9.57
2023-05-01T20:58:23.391Z,9.53
2023-05-01T21:00:54.486Z,8.67
2023-05-01T21:03:21.792Z,8.80
2023-05-01T21:05:48.882Z,8.87
2023-05-01T21:08:16.174Z,9.50
2023-05-01T21:10:43.096Z,8.60
2023-05-01T21:13:10.073Z,9.57
2023-05-01T21:15:41.353Z,8.53
2023-05-01T21:18:11.431Z,9.23
2023-05-01T21:20:39.496Z,10.13
2023-05-01T21:23:06.490Z,9.20
2023-05-01T21:25:33.414Z,9.37
2023-05-01T21:28:05.627Z,9.17
2023-05-01T21:30:36.698Z,9.33
2023-05-01T21:33:06.818Z,9.33
2023-05-01T21:35:34.236Z,8.73
2023-05-01T21:38:01.217Z,10.57
2023-05-01T21:40:28.213Z,9.70
2023-05-01T21:42:55.420Z,9.83
2023-05-01T21:45:22.881Z,10.30
2023-05-01T21:47:51.446Z,10.27
2023-05-01T21:50:20.318Z,9.03
2023-05-01T21:52:49.198Z,9.60
2023-05-01T21:55:26.280Z,10.47
2023-05-01T21:57:56.070Z,8.93
2023-05-01T22:00:23.069Z,10.20
2023-05-01T22:02:52.159Z,9.40
2023-05-01T22:05:22.955Z,10.03
2023-05-01T22:07:54.355Z,11.40
2023-05-01T22:10:21.656Z,9.20
2023-05-01T22:12:51.953Z,10.33
2023-05-01T22:15:19.100Z,10.00
2023-05-01T22:17:46.278Z,9.83
2023-05-01T22:20:13.320Z,10.73
2023-05-01T22:22:41.744Z,8.87
2023-05-01T22:25:10.131Z,9.00
2023-05-01T22:27:37.307Z,8.90
2023-05-01T22:30:05.587Z,9.40
2023-05-01T22:32:32.633Z,9.70
2023-05-01T22:34:59.750Z,8.13
2023-05-01T22:37:26.735Z,8.90
2023-05-01T22:39:54.271Z,7.87
2023-05-01T22:42:21.773Z,8.30
2023-05-01T22:44:49.261Z,8.87
2023-05-01T22:47:16.351Z,9.03
2023-05-01T22:49:43.133Z,9.20
2023-05-01T22:52:10.103Z,8.60
2023-05-01T22:54:36.992Z,10.40
2023-05-01T22:57:03.987Z,9.33
2023-05-01T22:59:30.859Z,9.80
2023-05-01T23:01:57.850Z,9.17
2023-05-01T23:04:24.869Z,9.77
2023-05-01T23:06:51.779Z,9.30
2023-05-01T23:09:18.857Z,8.60
2023-05-01T23:11:47.982Z,9.23
2023-05-01T23:14:18.584Z,10.00
2023-05-01T23:16:45.504Z,9.93
2023-05-01T23:19:23.769Z,8.93
2023-05-01T23:21:52.174Z,10.50
2023-05-01T23:24:21.411Z,9.47
2023-05-01T23:26:48.303Z,9.20
2023-05-01T23:29:16.426Z,8.37
2023-05-01T23:31:47.380Z,9.17
2023-05-01T23:34:17.966Z,8.47
2023-05-01T23:36:46.668Z,8.73
2023-05-01T23:39:14.265Z,8.60
2023-05-01T23:41:41.763Z,8.53
2023-05-01T23:44:09.760Z,7.67
2023-05-01T23:46:37.893Z,9.93
2023-05-01T23:49:05.023Z,8.83
2023-05-01T23:51:32.392Z,9.77
2023-05-01T23:53:59.737Z,8.60
2023-05-01T23:56:26.615Z,8.63
2023-05-01T23:58:53.530Z,8.73
